createdAt,value
2022-10-24T00:00:12.188Z,16.35
2022-10-24T00:02:57.592Z,13.52
2022-10-24T00:05:45.349Z,15.27
2022-10-24T00:08:30.729Z,18.52
2022-10-24T00:11:19.361Z,14.15
2022-10-24T00:14:04.579Z,18.05
2022-10-24T00:16:49.507Z,14.40
2022-10-24T00:19:35.034Z,15.70
2022-10-24T00:22:20.834Z,16.67
2022-10-24T00:25:06.753Z,19.77
2022-10-24T00:27:51.920Z,18.65
2022-10-24T00:30:36.874Z,18.85
2022-10-24T00:33:22.232Z,16.42
2022-10-24T00:36:14.543Z,18.30
2022-10-24T00:38:59.378Z,18.73
2022-10-24T00:41:44.337Z,15.35
2022-10-24T00:44:32.628Z,17.15
2022-10-24T00:47:20.365Z,17.75
2022-10-24T00:50:14.082Z,20.77
2022-10-24T00:52:59.354Z,17.65
2022-10-24T00:55:48.000Z,15.30
2022-10-24T00:58:37.432Z,25.48
2022-10-24T01:01:24.206Z,21.48
2022-10-24T01:04:13.077Z,17.92
2022-10-24T01:07:08.062Z,16.20
2022-10-24T01:10:07.715Z,17.92
2022-10-24T01:13:19.573Z,14.85
2022-10-24T01:16:12.318Z,18.05
2022-10-24T01:19:11.739Z,16.48
2022-10-24T01:22:01.135Z,18.48
2022-10-24T01:25:04.932Z,19.92
2022-10-24T01:28:12.974Z,15.90
2022-10-24T01:31:27.466Z,17.63
2022-10-24T01:34:25.118Z,19.73
2022-10-24T01:37:19.859Z,21.80
2022-10-24T01:40:32.164Z,20.50
2022-10-24T01:43:22.098Z,18.73
2022-10-24T01:46:12.886Z,13.18
2022-10-24T01:49:07.315Z,16.25
2022-10-24T01:51:57.090Z,16.77
2022-10-24T01:54:44.627Z,20.73
2022-10-24T01:57:32.321Z,17.17
2022-10-24T02:00:20.634Z,18.65
2022-10-24T02:03:13.418Z,16.42
2022-10-24T02:06:28.359Z,22.17
2022-10-24T02:09:17.426Z,23.83
2022-10-24T02:12:03.278Z,23.05
2022-10-24T02:14:57.742Z,20.60
2022-10-24T02:17:43.083Z,17.42
2022-10-24T02:20:34.040Z,21.48
2022-10-24T02:23:30.931Z,20.02
2022-10-24T02:26:42.654Z,15.13
2022-10-24T02:29:31.535Z,19.05
2022-10-24T02:32:25.138Z,16.73
2022-10-24T02:35:12.828Z,21.42
2022-10-24T02:38:04.346Z,18.00
2022-10-24T02:40:52.107Z,14.38
2022-10-24T02:43:40.622Z,22.98
2022-10-24T02:46:27.003Z,18.98
2022-10-24T02:49:13.043Z,21.10
2022-10-24T02:51:58.981Z,15.45
2022-10-24T02:54:44.397Z,20.85
2022-10-24T02:57:29.132Z,18.05
2022-10-24T03:00:14.599Z,17.50
2022-10-24T03:02:59.981Z,17.02
2022-10-24T03:05:44.728Z,15.52
2022-10-24T03:08:30.050Z,18.77
2022-10-24T03:11:15.097Z,18.55
2022-10-24T03:14:00.889Z,17.08
2022-10-24T03:16:46.175Z,17.42
2022-10-24T03:19:31.467Z,18.90
2022-10-24T03:22:16.322Z,19.55
2022-10-24T03:25:01.827Z,19.38
2022-10-24T03:27:47.292Z,17.27
2022-10-24T03:30:32.561Z,20.42
2022-10-24T03:33:17.638Z,18.25
2022-10-24T03:36:02.881Z,16.98
2022-10-24T03:38:48.014Z,17.08
2022-10-24T03:41:32.821Z,17.67
2022-10-24T03:44:17.735Z,17.35
2022-10-24T03:47:02.642Z,23.88
2022-10-24T03:49:47.706Z,16.52
2022-10-24T03:52:32.808Z,16.85
2022-10-24T03:55:18.258Z,15.18
2022-10-24T03:58:03.737Z,20.10
2022-10-24T04:00:49.102Z,15.88
2022-10-24T04:03:34.278Z,17.83
2022-10-24T04:06:19.258Z,16.10
2022-10-24T04:09:04.675Z,17.48
2022-10-24T04:11:49.788Z,17.40
2022-10-24T04:14:35.225Z,24.95
2022-10-24T04:17:20.327Z,21.45
2022-10-24T04:20:06.594Z,16.20
2022-10-24T04:22:51.559Z,21.63
2022-10-24T04:25:36.954Z,16.25
2022-10-24T04:28:21.890Z,17.30
2022-10-24T04:31:07.202Z,17.48
2022-10-24T04:33:52.398Z,21.25
2022-10-24T04:36:37.485Z,17.25
2022-10-24T04:39:22.200Z,20.48
2022-10-24T04:42:07.015Z,17.05
2022-10-24T04:44:52.514Z,18.48
2022-10-24T04:47:37.426Z,20.55
2022-10-24T04:50:23.546Z,16.45
2022-10-24T04:53:09.087Z,15.77
2022-10-24T04:55:54.131Z,16.75
2022-10-24T04:58:39.398Z,18.42
2022-10-24T05:01:24.410Z,21.13
2022-10-24T05:04:09.907Z,16.23
2022-10-24T05:06:54.833Z,15.98
2022-10-24T05:09:39.921Z,15.02
2022-10-24T05:12:24.769Z,15.27
2022-10-24T05:15:11.154Z,17.67
2022-10-24T05:17:57.330Z,20.05
2022-10-24T05:20:42.499Z,18.50
2022-10-24T05:23:27.826Z,17.77
2022-10-24T05:26:12.771Z,14.43
2022-10-24T05:28:58.022Z,17.05
2022-10-24T05:31:43.395Z,14.63
2022-10-24T05:34:28.322Z,17.48
2022-10-24T05:37:14.104Z,19.20
2022-10-24T05:39:59.005Z,23.40
2022-10-24T05:42:44.307Z,17.52
2022-10-24T05:45:29.645Z,16.70
2022-10-24T05:48:16.224Z,19.30
2022-10-24T05:51:01.323Z,19.08
2022-10-24T05:53:46.392Z,17.65
2022-10-24T05:56:31.810Z,17.77
2022-10-24T05:59:16.754Z,16.38
2022-10-24T06:02:02.311Z,18.92
2022-10-24T06:04:48.161Z,15.70
2022-10-24T06:07:33.764Z,17.85
2022-10-24T06:10:19.047Z,22.10
2022-10-24T06:13:04.168Z,13.00
2022-10-24T06:15:49.181Z,13.23
2022-10-24T06:18:35.364Z,14.70
2022-10-24T06:21:20.641Z,18.00
2022-10-24T06:24:05.497Z,16.77
2022-10-24T06:26:50.547Z,14.52
2022-10-24T06:29:36.404Z,17.02
2022-10-24T06:32:21.335Z,16.13
2022-10-24T06:35:07.429Z,12.38
2022-10-24T06:37:52.574Z,17.23
2022-10-24T06:40:38.051Z,14.15
2022-10-24T06:43:23.678Z,15.07
2022-10-24T06:46:10.781Z,10.57
2022-10-24T06:48:56.039Z,14.05
2022-10-24T06:51:41.591Z,10.88
2022-10-24T06:54:30.079Z,16.10
2022-10-24T06:57:15.676Z,13.27
2022-10-24T07:00:00.674Z,14.70
2022-10-24T07:02:48.310Z,12.73
2022-10-24T07:05:33.469Z,13.77
2022-10-24T07:08:18.310Z,14.70
2022-10-24T07:11:03.853Z,17.65
2022-10-24T07:13:49.173Z,11.63
2022-10-24T07:16:34.228Z,15.30
2022-10-24T07:19:19.165Z,15.13
2022-10-24T07:22:04.176Z,14.18
2022-10-24T07:24:55.758Z,17.55
2022-10-24T07:27:41.048Z,18.67
2022-10-24T07:30:26.083Z,14.93
2022-10-24T07:33:11.633Z,15.35
2022-10-24T07:35:56.636Z,13.80
2022-10-24T07:38:41.855Z,11.35
2022-10-24T07:41:29.609Z,14.68
2022-10-24T07:44:15.065Z,14.60
2022-10-24T07:47:00.461Z,18.75
2022-10-24T07:49:45.836Z,15.40
2022-10-24T07:52:31.354Z,13.20
2022-10-24T07:55:16.783Z,13.02
2022-10-24T07:58:02.253Z,13.93
2022-10-24T08:00:47.222Z,18.35
2022-10-24T08:03:32.172Z,14.43
2022-10-24T08:06:21.305Z,15.68
2022-10-24T08:09:06.338Z,17.45
2022-10-24T08:11:51.417Z,14.70
2022-10-24T08:14:41.021Z,14.15
2022-10-24T08:17:26.304Z,13.63
2022-10-24T08:20:11.773Z,15.55
2022-10-24T08:22:56.739Z,14.05
2022-10-24T08:25:41.590Z,16.17
2022-10-24T08:28:26.427Z,12.70
2022-10-24T08:31:17.156Z,14.20
2022-10-24T08:34:02.291Z,14.13
2022-10-24T08:36:49.049Z,10.65
2022-10-24T08:39:35.700Z,16.48
2022-10-24T08:42:23.368Z,14.88
2022-10-24T08:45:17.024Z,13.52
2022-10-24T08:48:09.366Z,15.02
2022-10-24T08:51:02.493Z,11.80
2022-10-24T08:53:49.081Z,12.15
2022-10-24T08:56:34.161Z,13.50
2022-10-24T08:59:20.680Z,9.35
2022-10-24T09:02:12.706Z,12.32
2022-10-24T09:05:21.494Z,11.27
2022-10-24T09:08:23.024Z,12.73
2022-10-24T09:11:16.477Z,15.60
2022-10-24T09:14:07.370Z,13.63
2022-10-24T09:17:25.613Z,10.85
2022-10-24T09:20:29.668Z,10.38
2022-10-24T09:23:16.284Z,17.48
2022-10-24T09:26:05.126Z,14.30
2022-10-24T09:28:50.162Z,12.32
2022-10-24T09:31:35.590Z,14.80
2022-10-24T09:34:21.266Z,12.27
2022-10-24T09:37:06.358Z,15.40
2022-10-24T09:40:19.075Z,13.52
2022-10-24T09:43:18.674Z,13.45
2022-10-24T09:46:10.110Z,8.07
2022-10-24T09:48:59.241Z,13.57
2022-10-24T09:51:47.888Z,12.70
2022-10-24T09:54:35.302Z,13.60
2022-10-24T09:57:20.090Z,12.32
2022-10-24T10:00:05.873Z,13.40
2022-10-24T10:03:23.869Z,14.52
2022-10-24T10:06:18.461Z,11.25
2022-10-24T10:09:14.690Z,11.77
2022-10-24T10:12:03.331Z,17.13
2022-10-24T10:14:48.822Z,12.38
2022-10-24T10:17:34.249Z,11.18
2022-10-24T10:20:26.899Z,9.27
2022-10-24T10:23:25.865Z,12.15
2022-10-24T10:26:17.111Z,9.38
2022-10-24T10:29:05.086Z,10.68
2022-10-24T10:31:58.221Z,11.68
2022-10-24T10:34:49.965Z,12.15
2022-10-24T10:37:42.800Z,11.27
2022-10-24T10:40:40.169Z,13.85
2022-10-24T10:43:44.000Z,13.68
2022-10-24T10:46:46.586Z,10.02
2022-10-24T10:49:37.069Z,13.73
2022-10-24T10:52:31.693Z,11.38
2022-10-24T10:55:16.959Z,8.70
2022-10-24T10:58:01.970Z,11.35
2022-10-24T11:01:09.298Z,9.38
2022-10-24T11:04:01.875Z,12.45
2022-10-24T11:06:52.095Z,16.83
2022-10-24T11:09:42.981Z,11.70
2022-10-24T11:12:39.190Z,12.10
2022-10-24T11:15:26.660Z,8.63
2022-10-24T11:18:21.772Z,12.18
2022-10-24T11:21:09.774Z,11.93
2022-10-24T11:24:03.801Z,15.05
2022-10-24T11:27:06.880Z,11.07
2022-10-24T11:30:04.419Z,10.02
2022-10-24T11:32:56.346Z,16.02
2022-10-24T11:35:59.786Z,17.25
2022-10-24T11:38:51.319Z,15.10
2022-10-24T11:41:55.415Z,15.98
2022-10-24T11:45:07.448Z,10.75
2022-10-24T11:48:02.715Z,13.52
2022-10-24T11:50:58.784Z,13.02
2022-10-24T11:53:51.346Z,12.25
2022-10-24T11:56:43.920Z,11.48
2022-10-24T11:59:29.792Z,11.27
2022-10-24T12:02:43.954Z,12.00
2022-10-24T12:06:10.128Z,15.23
2022-10-24T12:09:26.968Z,13.70
2022-10-24T12:12:41.302Z,11.93
2022-10-24T12:15:41.616Z,13.40
2022-10-24T12:18:32.986Z,13.63
2022-10-24T12:21:26.163Z,12.95
2022-10-24T12:24:41.049Z,15.35
2022-10-24T12:27:36.988Z,9.35
2022-10-24T12:30:24.192Z,11.45
2022-10-24T12:33:23.543Z,8.75
2022-10-24T12:36:09.545Z,14.13
2022-10-24T12:38:54.661Z,15.30
2022-10-24T12:41:41.156Z,15.38
2022-10-24T12:44:29.475Z,13.93
2022-10-24T12:47:37.195Z,11.77
2022-10-24T12:50:22.258Z,13.60
2022-10-24T12:53:38.255Z,14.73
2022-10-24T12:56:23.935Z,10.27
2022-10-24T12:59:27.470Z,11.25
2022-10-24T13:02:15.654Z,11.25
2022-10-24T13:05:10.029Z,14.30
2022-10-24T13:08:04.061Z,13.30
2022-10-24T13:11:08.111Z,14.90
2022-10-24T13:14:08.734Z,9.68
2022-10-24T13:17:18.083Z,15.18
2022-10-24T13:20:22.353Z,11.93
2022-10-24T13:23:20.338Z,11.25
2022-10-24T13:26:06.024Z,14.13
2022-10-24T13:28:51.291Z,13.43
2022-10-24T13:31:36.143Z,11.18
2022-10-24T13:34:52.296Z,12.68
2022-10-24T13:37:50.038Z,16.50
2022-10-24T13:40:35.808Z,12.68
2022-10-24T13:43:21.263Z,14.45
2022-10-24T13:46:13.085Z,11.05
2022-10-24T13:49:00.331Z,11.40
2022-10-24T13:51:52.275Z,13.63
2022-10-24T13:54:38.779Z,15.10
2022-10-24T13:57:31.441Z,10.82
2022-10-24T14:00:39.804Z,12.02
2022-10-24T14:03:27.756Z,10.57
2022-10-24T14:06:13.249Z,14.35
2022-10-24T14:09:07.311Z,13.07
2022-10-24T14:11:53.474Z,16.17
2022-10-24T14:14:39.741Z,12.57
2022-10-24T14:17:31.995Z,13.57
2022-10-24T14:20:21.951Z,7.78
2022-10-24T14:23:25.005Z,13.00
2022-10-24T14:26:17.539Z,14.15
2022-10-24T14:29:02.887Z,18.63
2022-10-24T14:31:55.984Z,12.35
2022-10-24T14:34:41.217Z,11.50
2022-10-24T14:37:35.661Z,11.98
2022-10-24T14:40:20.788Z,14.18
2022-10-24T14:43:09.642Z,12.38
2022-10-24T14:46:09.325Z,14.68
2022-10-24T14:48:54.163Z,16.23
2022-10-24T14:51:40.493Z,11.75
2022-10-24T14:54:31.809Z,10.48
2022-10-24T14:57:21.188Z,13.00
2022-10-24T15:00:08.131Z,12.57
2022-10-24T15:02:56.746Z,12.15
2022-10-24T15:05:41.818Z,13.10
2022-10-24T15:08:34.635Z,13.45
2022-10-24T15:11:21.909Z,13.07
2022-10-24T15:14:36.006Z,14.27
2022-10-24T15:17:32.762Z,13.20
2022-10-24T15:20:25.104Z,11.65
2022-10-24T15:23:21.735Z,15.63
2022-10-24T15:26:27.694Z,11.10
2022-10-24T15:29:13.220Z,15.02
2022-10-24T15:31:59.621Z,13.77
2022-10-24T15:34:44.430Z,14.45
2022-10-24T15:37:29.641Z,16.40
2022-10-24T15:40:20.416Z,14.55
2022-10-24T15:43:05.511Z,16.83
2022-10-24T15:45:50.535Z,18.20
2022-10-24T15:48:37.698Z,19.20
2022-10-24T15:51:24.544Z,14.55
2022-10-24T15:54:11.894Z,18.38
2022-10-24T15:56:59.475Z,12.38
2022-10-24T15:59:46.536Z,16.05
2022-10-24T16:02:33.721Z,13.75
2022-10-24T16:05:22.896Z,16.98
2022-10-24T16:08:13.223Z,18.75
2022-10-24T16:10:58.340Z,15.13
2022-10-24T16:13:44.076Z,12.93
2022-10-24T16:16:29.132Z,15.85
2022-10-24T16:19:14.456Z,16.23
2022-10-24T16:21:59.910Z,13.40
2022-10-24T16:24:44.885Z,16.92
2022-10-24T16:27:29.788Z,17.42
2022-10-24T16:30:16.717Z,11.88
2022-10-24T16:33:02.966Z,13.43
2022-10-24T16:35:48.291Z,14.13
2022-10-24T16:38:32.970Z,13.02
2022-10-24T16:41:20.685Z,13.38
2022-10-24T16:44:05.818Z,16.08
2022-10-24T16:46:53.131Z,15.68
2022-10-24T16:49:38.305Z,17.00
2022-10-24T16:52:23.308Z,13.68
2022-10-24T16:55:11.216Z,18.05
2022-10-24T16:57:57.277Z,15.43
2022-10-24T17:00:42.665Z,17.15
2022-10-24T17:03:27.817Z,12.68
2022-10-24T17:06:13.593Z,16.17
2022-10-24T17:08:58.570Z,16.45
2022-10-24T17:11:45.990Z,17.83
2022-10-24T17:14:36.672Z,16.85
2022-10-24T17:17:21.768Z,18.38
2022-10-24T17:20:07.818Z,13.82
2022-10-24T17:22:53.697Z,16.52
2022-10-24T17:25:39.429Z,12.95
2022-10-24T17:28:24.868Z,13.40
2022-10-24T17:31:10.169Z,13.85
2022-10-24T17:33:55.529Z,18.33
2022-10-24T17:36:45.760Z,20.67
2022-10-24T17:39:40.373Z,12.57
2022-10-24T17:42:28.308Z,14.13
2022-10-24T17:45:24.015Z,15.90
2022-10-24T17:48:10.158Z,12.85
2022-10-24T17:50:58.088Z,15.02
2022-10-24T17:53:43.493Z,14.73
2022-10-24T17:56:28.885Z,15.60
2022-10-24T17:59:13.890Z,15.85
2022-10-24T18:01:59.200Z,11.82
2022-10-24T18:04:44.343Z,18.33
2022-10-24T18:07:29.791Z,17.30
2022-10-24T18:10:16.186Z,17.58
2022-10-24T18:13:01.649Z,16.70
2022-10-24T18:15:46.752Z,15.18
2022-10-24T18:18:32.074Z,20.45
2022-10-24T18:21:20.254Z,13.27
2022-10-24T18:24:07.459Z,17.73
2022-10-24T18:26:52.812Z,18.63
2022-10-24T18:29:37.825Z,16.38
2022-10-24T18:32:23.222Z,16.75
2022-10-24T18:35:08.886Z,17.08
2022-10-24T18:37:54.389Z,18.83
2022-10-24T18:40:39.942Z,19.13
2022-10-24T18:43:25.351Z,15.05
2022-10-24T18:46:11.740Z,17.58
2022-10-24T18:48:57.660Z,18.75
2022-10-24T18:51:57.820Z,13.40
2022-10-24T18:55:02.252Z,14.43
2022-10-24T18:57:49.735Z,19.35
2022-10-24T19:00:35.149Z,18.40
2022-10-24T19:03:35.598Z,16.88
2022-10-24T19:06:26.005Z,18.02
2022-10-24T19:09:19.954Z,16.92
2022-10-24T19:12:05.566Z,16.13
2022-10-24T19:14:51.345Z,20.33
2022-10-24T19:17:36.586Z,19.15
2022-10-24T19:20:23.516Z,16.95
2022-10-24T19:23:13.466Z,18.23
2022-10-24T19:25:58.730Z,18.85
2022-10-24T19:28:44.097Z,17.15
2022-10-24T19:31:29.511Z,20.63
2022-10-24T19:34:14.460Z,18.83
2022-10-24T19:36:59.711Z,17.85
2022-10-24T19:39:44.975Z,18.60
2022-10-24T19:42:30.274Z,20.23
2022-10-24T19:45:15.716Z,19.77
2022-10-24T19:48:01.098Z,18.60
2022-10-24T19:50:46.446Z,17.27
2022-10-24T19:53:35.592Z,19.48
2022-10-24T19:56:25.017Z,20.90
2022-10-24T19:59:10.736Z,16.15
2022-10-24T20:01:55.654Z,14.85
2022-10-24T20:04:41.918Z,12.20
2022-10-24T20:07:27.755Z,14.32
2022-10-24T20:10:13.246Z,14.77
2022-10-24T20:12:58.683Z,18.60
2022-10-24T20:15:43.556Z,13.45
2022-10-24T20:18:32.721Z,16.25
2022-10-24T20:21:18.721Z,12.57
2022-10-24T20:24:04.176Z,13.10
2022-10-24T20:26:50.291Z,13.57
2022-10-24T20:29:36.071Z,14.98
2022-10-24T20:32:21.195Z,15.57
2022-10-24T20:35:07.475Z,14.65
2022-10-24T20:37:52.664Z,14.98
2022-10-24T20:40:37.845Z,12.52
2022-10-24T20:43:22.688Z,10.55
2022-10-24T20:46:10.474Z,14.98
2022-10-24T20:48:55.697Z,11.10
2022-10-24T20:51:41.651Z,9.90
2022-10-24T20:54:26.819Z,10.45
2022-10-24T20:57:12.177Z,13.00
2022-10-24T20:59:57.510Z,13.68
2022-10-24T21:02:42.468Z,11.40
2022-10-24T21:05:28.009Z,10.82
2022-10-24T21:08:13.310Z,8.68
2022-10-24T21:10:58.221Z,12.05
2022-10-24T21:13:43.995Z,9.32
2022-10-24T21:16:29.894Z,9.60
2022-10-24T21:19:14.728Z,10.82
2022-10-24T21:21:59.621Z,13.73
2022-10-24T21:24:44.446Z,10.88
2022-10-24T21:27:29.441Z,9.18
2022-10-24T21:30:14.872Z,8.80
2022-10-24T21:33:00.320Z,8.60
2022-10-24T21:35:45.564Z,12.07
2022-10-24T21:38:31.021Z,9.18
2022-10-24T21:41:17.082Z,10.52
2022-10-24T21:44:01.932Z,10.23
2022-10-24T21:46:47.228Z,10.60
2022-10-24T21:49:32.056Z,9.57
2022-10-24T21:52:17.051Z,10.82
2022-10-24T21:55:01.903Z,9.57
2022-10-24T21:57:46.804Z,11.65
2022-10-24T22:00:32.635Z,10.13
2022-10-24T22:03:19.704Z,9.73
2022-10-24T22:06:04.593Z,8.55
2022-10-24T22:08:51.491Z,7.90
2022-10-24T22:11:37.486Z,7.78
2022-10-24T22:14:22.804Z,10.82
2022-10-24T22:17:07.901Z,9.80
2022-10-24T22:19:53.411Z,7.93
2022-10-24T22:22:38.365Z,14.48
2022-10-24T22:25:23.583Z,13.10
2022-10-24T22:28:08.752Z,10.63
2022-10-24T22:30:54.305Z,9.90
2022-10-24T22:33:40.642Z,10.73
2022-10-24T22:36:56.327Z,11.05
2022-10-24T22:39:41.547Z,9.25
2022-10-24T22:42:26.977Z,12.30
2022-10-24T22:45:12.798Z,14.43
2022-10-24T22:48:16.207Z,11.00
2022-10-24T22:51:01.475Z,12.13
2022-10-24T22:53:46.861Z,14.07
2022-10-24T22:56:32.300Z,13.15
2022-10-24T22:59:17.616Z,9.98
2022-10-24T23:02:28.128Z,12.30
2022-10-24T23:08:40.228Z,10.02
2022-10-24T23:11:25.342Z,15.05
2022-10-24T23:14:11.640Z,14.48
2022-10-24T23:16:58.909Z,17.75
2022-10-24T23:19:45.053Z,15.15
2022-10-24T23:22:33.012Z,12.60
2022-10-24T23:25:18.881Z,15.88
2022-10-24T23:28:27.276Z,17.60
2022-10-24T23:31:12.793Z,16.50
2022-10-24T23:33:58.132Z,15.52
2022-10-24T23:36:44.470Z,19.40
2022-10-24T23:39:33.959Z,18.63
2022-10-24T23:42:19.174Z,18.77
2022-10-24T23:45:04.855Z,20.98
2022-10-24T23:48:17.585Z,17.17
2022-10-24T23:51:11.896Z,18.02
2022-10-24T23:53:57.447Z,20.50
2022-10-24T23:56:42.671Z,14.13
2022-10-24T23:59:28.683Z,16.13
